Time;durP1;ratioP1;P1;durP2;ratioP2;P2;SDS_P1;SDS_P2;PMS_P1;PMS_P2;Temp;Humidity;BMP_temperature;BMP_pressure;BME280_temperature;BME280_humidity;BME280_pressure;Samples;Min_cycle;Max_cycle;Signal;HPM_P1;HPM_P2
2022/08/19 04:32:10;;;;;;;;;8.00;6.50;;;;;-147.14;100.00;58812.66;5208081;22;9824;-66
2022/08/19 04:34:37;;;;;;;;;4.00;4.00;;;;;-147.14;100.00;58812.66;5054410;28;8836;-65
2022/08/19 04:37:07;;;;;;;;;6.50;5.50;;;;;-147.14;100.00;58812.66;5045327;28;8939;-67
2022/08/19 04:45:03;;;;;;;;;5.50;5.50;;;;;-147.14;100.00;58812.66;5057372;28;9642;-66
2022/08/19 04:47:29;;;;;;;;;3.00;3.00;;;;;-147.14;100.00;58812.66;5056229;28;8753;-66
2022/08/19 04:49:55;;;;;;;;;5.00;5.00;;;;;-147.14;100.00;58812.66;5055666;28;9585;-66
2022/08/19 04:52:20;;;;;;;;;4.33;4.00;;;;;-147.14;100.00;58812.66;5053263;28;8825;-65
2022/08/19 04:54:45;;;;;;;;;4.67;4.00;;;;;-147.14;100.00;58812.66;5055547;28;30678;-66
2022/08/19 04:57:11;;;;;;;;;3.00;3.00;;;;;-147.14;100.00;58812.66;5055483;28;29786;-67
2022/08/19 04:59:37;;;;;;;;;4.67;4.67;;;;;-147.14;100.00;58812.66;5055251;28;31724;-67
2022/08/19 05:02:04;;;;;;;;;5.25;5.25;;;;;-147.14;100.00;58812.66;5056529;28;8820;-67
2022/08/19 05:04:31;;;;;;;;;5.50;5.00;;;;;-147.14;100.00;58812.66;5056470;28;8812;-67
2022/08/19 05:06:57;;;;;;;;;2.25;2.25;;;;;-147.14;100.00;58812.66;5042276;28;8812;-67
2022/08/19 05:09:22;;;;;;;;;5.33;4.33;;;;;-147.14;100.00;58812.66;5055195;28;8913;-67
2022/08/19 05:11:49;;;;;;;;;3.67;3.67;;;;;-147.14;100.00;58812.66;5057272;28;30270;-67
2022/08/19 05:14:14;;;;;;;;;4.00;4.00;;;;;-147.14;100.00;58812.66;5054947;28;8756;-67
2022/08/19 05:16:40;;;;;;;;;3.33;3.33;;;;;-147.14;100.00;58812.66;5053741;28;30342;-67
2022/08/19 05:24:34;;;;;;;;;3.00;3.00;;;;;-147.14;100.00;58812.66;5054606;28;8799;-67
2022/08/19 05:27:00;;;;;;;;;5.33;5.33;;;;;-147.14;100.00;58812.66;5054306;28;26143;-67
2022/08/19 05:29:27;;;;;;;;;4.00;4.00;;;;;-147.14;100.00;58812.66;5054387;28;8905;-67
2022/08/19 05:31:53;;;;;;;;;4.25;4.00;;;;;-147.14;100.00;58812.66;5054075;28;11035;-65
2022/08/19 05:34:21;;;;;;;;;5.00;5.00;;;;;-147.14;100.00;58812.66;5055130;28;8783;-67
2022/08/19 05:36:48;;;;;;;;;3.25;3.25;;;;;-147.14;100.00;58812.66;5043726;28;8946;-67
2022/08/19 05:39:17;;;;;;;;;4.50;4.25;;;;;-147.14;100.00;58812.66;5052621;28;8817;-68
2022/08/19 05:41:47;;;;;;;;;2.00;2.00;;;;;-147.14;100.00;58812.66;5055581;28;9638;-68
2022/08/19 05:44:14;;;;;;;;;3.50;3.50;;;;;-147.14;100.00;58812.66;5054336;28;8780;-67
2022/08/19 05:46:39;;;;;;;;;3.00;3.00;;;;;-147.14;100.00;58812.66;5055644;28;8823;-68
2022/08/19 05:49:06;;;;;;;;;3.25;2.25;;;;;-147.14;100.00;58812.66;5056494;28;8852;-68
2022/08/19 05:51:33;;;;;;;;;2.75;2.75;;;;;-147.14;100.00;58812.66;5050854;28;8812;-67
2022/08/19 05:53:59;;;;;;;;;2.00;2.00;;;;;-147.14;100.00;58812.66;5057272;28;8822;-66
2022/08/19 05:56:24;;;;;;;;;3.00;3.00;;;;;-147.14;100.00;58812.66;5050091;28;8810;-68
2022/08/19 05:58:50;;;;;;;;;2.00;2.00;;;;;-147.14;100.00;58812.66;5054824;28;9653;-66
2022/08/19 06:01:17;;;;;;;;;1.50;1.50;;;;;-147.14;100.00;58812.66;5051876;28;27576;-66
2022/08/19 06:03:44;;;;;;;;;2.75;2.00;;;;;-147.14;100.00;58812.66;5052272;28;8788;-66
2022/08/19 06:06:11;;;;;;;;;3.00;3.00;;;;;-147.14;100.00;58812.66;5054724;28;8800;-65
2022/08/19 06:08:38;;;;;;;;;2.00;2.00;;;;;-147.14;100.00;58812.66;5050525;28;8834;-65
2022/08/19 06:11:40;;;;;;;;;5.00;4.00;;;;;-147.14;100.00;58812.66;5055813;28;8796;-65
2022/08/19 06:14:09;;;;;;;;;3.00;3.00;;;;;-147.14;100.00;58812.66;5035751;28;8895;-65
2022/08/19 06:16:39;;;;;;;;;1.80;1.80;;;;;-147.14;100.00;58812.66;5057265;28;8786;-66
2022/08/19 06:19:07;;;;;;;;;1.00;1.00;;;;;-147.14;100.00;58812.66;5055452;28;8806;-65
2022/08/19 06:21:35;;;;;;;;;3.50;2.00;;;;;-147.14;100.00;58812.66;5048519;28;8807;-66
2022/08/19 06:24:02;;;;;;;;;3.75;3.75;;;;;-147.14;100.00;58812.66;5054122;28;8780;-66
2022/08/19 06:26:28;;;;;;;;;3.00;3.00;;;;;-147.14;100.00;58812.66;5058880;28;8792;-66
2022/08/19 06:28:53;;;;;;;;;3.33;2.00;;;;;-147.14;100.00;58812.66;5052746;28;8824;-66
2022/08/19 06:31:23;;;;;;;;;3.00;1.33;;;;;-147.14;100.00;58812.66;5053240;28;27542;-66
2022/08/19 06:33:49;;;;;;;;;1.00;1.00;;;;;-147.14;100.00;58812.66;5050600;28;8791;-65
2022/08/19 06:36:29;;;;;;;;;1.67;1.33;;;;;-147.14;100.00;58812.66;5051989;28;8892;-66
2022/08/19 06:38:55;;;;;;;;;2.75;0.75;;;;;-147.14;100.00;58812.66;5058480;28;8820;-68
2022/08/19 06:41:20;;;;;;;;;1.33;1.33;;;;;-147.14;100.00;58812.66;5053143;28;8816;-67
2022/08/19 06:43:48;;;;;;;;;2.00;2.00;;;;;-147.14;100.00;58812.66;5057825;28;11583;-67
2022/08/19 06:46:15;;;;;;;;;1.50;1.50;;;;;-147.14;100.00;58812.66;5059376;28;8800;-62
2022/08/19 06:48:41;;;;;;;;;2.00;1.40;;;;;-147.14;100.00;58812.66;5059580;28;8834;-62
2022/08/19 06:51:07;;;;;;;;;1.40;1.40;;;;;-147.14;100.00;58812.66;5056145;28;8890;-62
2022/08/19 06:53:32;;;;;;;;;1.00;1.00;;;;;-147.14;100.00;58812.66;5064700;28;8920;-62
2022/08/19 06:55:59;;;;;;;;;1.00;1.00;;;;;-147.14;100.00;58812.66;5057627;28;9748;-62
2022/08/19 06:58:25;;;;;;;;;2.00;2.00;;;;;-147.14;100.00;58812.66;5066488;28;8785;-62
2022/08/19 07:00:51;;;;;;;;;1.67;1.67;;;;;-147.14;100.00;58812.66;5045767;28;9519;-62
2022/08/19 07:03:17;;;;;;;;;1.00;1.00;;;;;-147.14;100.00;58812.66;5066776;28;8951;-62
2022/08/19 07:05:43;;;;;;;;;1.00;1.00;;;;;-147.14;100.00;58812.66;5055742;28;8815;-63
2022/08/19 07:08:09;;;;;;;;;1.00;1.00;;;;;-147.14;100.00;58812.66;5061589;28;8817;-62
2022/08/19 07:10:34;;;;;;;;;0.60;0.60;;;;;-147.14;100.00;58812.66;5070657;28;8821;-67
2022/08/19 07:13:00;;;;;;;;;1.00;1.00;;;;;-147.14;100.00;58812.66;5065083;28;9015;-67
2022/08/19 07:15:25;;;;;;;;;1.00;1.00;;;;;-147.14;100.00;58812.66;5069881;28;8825;-67
2022/08/19 07:17:51;;;;;;;;;0.00;0.00;;;;;-147.14;100.00;58812.66;5071870;28;29640;-68
2022/08/19 07:20:16;;;;;;;;;0.00;0.00;;;;;-147.14;100.00;58812.66;5070933;28;8842;-67
2022/08/19 07:22:42;;;;;;;;;1.00;1.00;;;;;-147.14;100.00;58812.66;5066016;28;25246;-67
2022/08/19 07:25:08;;;;;;;;;0.25;0.25;;;;;-147.14;100.00;58812.66;5058331;28;8880;-68
2022/08/19 07:27:34;;;;;;;;;0.00;0.00;;;;;-147.14;100.00;58812.66;5054031;28;8747;-67
2022/08/19 07:30:00;;;;;;;;;0.00;0.00;;;;;-147.14;100.00;58812.66;5057413;28;8855;-67
2022/08/19 07:32:26;;;;;;;;;1.00;0.00;;;;;-147.14;100.00;58812.66;5052850;28;8836;-67
2022/08/19 07:34:52;;;;;;;;;2.00;0.75;;;;;-147.14;100.00;58812.66;5057166;28;8918;-68
2022/08/19 07:37:17;;;;;;;;;1.33;1.00;;;;;-147.14;100.00;58812.66;5054022;28;8832;-69
2022/08/19 07:39:43;;;;;;;;;1.00;1.00;;;;;-147.14;100.00;58812.66;5055444;28;23672;-67
2022/08/19 07:42:10;;;;;;;;;0.00;0.00;;;;;-147.14;100.00;58812.66;5056709;28;8843;-67
2022/08/19 07:44:36;;;;;;;;;1.00;1.00;;;;;-147.14;100.00;58812.66;5053833;28;8804;-67
2022/08/19 07:47:02;;;;;;;;;0.80;0.80;;;;;-147.14;100.00;58812.66;5051961;28;9845;-66
2022/08/19 07:49:28;;;;;;;;;0.00;0.00;;;;;-147.14;100.00;58812.66;5059702;28;8826;-67
2022/08/19 07:51:57;;;;;;;;;0.75;0.75;;;;;-147.14;100.00;58812.66;5049443;28;8842;-67
2022/08/19 07:54:24;;;;;;;;;0.25;0.25;;;;;-147.14;100.00;58812.66;5058359;28;8816;-67
2022/08/19 07:56:50;;;;;;;;;0.00;0.00;;;;;-147.14;100.00;58812.66;5067428;28;8742;-67
2022/08/19 07:59:17;;;;;;;;;0.40;0.00;;;;;-147.14;100.00;58812.66;5064459;28;9654;-67
2022/08/19 08:01:43;;;;;;;;;2.00;0.00;;;;;-147.14;100.00;58812.66;5064485;28;8837;-67
2022/08/19 08:09:40;;;;;;;;;1.40;0.80;;;;;-147.14;100.00;58812.66;5052293;28;8816;-67
2022/08/19 08:12:23;;;;;;;;;0.80;0.60;;;;;-147.14;100.00;58812.66;5071668;28;8897;-68
2022/08/19 08:14:52;;;;;;;;;3.20;1.00;;;;;-147.14;100.00;58812.66;5070118;28;8828;-68
2022/08/19 08:17:19;;;;;;;;;0.40;0.40;;;;;-147.14;100.00;58812.66;5053166;28;8826;-68
2022/08/19 08:19:45;;;;;;;;;0.00;0.00;;;;;-147.14;100.00;58812.66;5072719;28;8818;-68
2022/08/19 08:25:02;;;;;;;;;1.00;1.00;;;;;-147.14;100.00;58812.66;5070158;28;8737;-68
2022/08/19 08:27:29;;;;;;;;;0.20;0.20;;;;;-147.14;100.00;58812.66;5051405;28;8943;-67
2022/08/19 08:29:54;;;;;;;;;1.60;0.00;;;;;-147.14;100.00;58812.66;5061590;28;8820;-68
2022/08/19 08:32:20;;;;;;;;;0.00;0.00;;;;;-147.14;100.00;58812.66;5057245;28;30746;-68
2022/08/19 08:34:45;;;;;;;;;0.00;0.00;;;;;-147.14;100.00;58812.66;5053508;28;19677;-68
2022/08/19 08:37:10;;;;;;;;;0.00;0.00;;;;;-147.14;100.00;58812.66;5044352;28;8826;-68
2022/08/19 08:39:36;;;;;;;;;0.00;0.00;;;;;-147.14;100.00;58812.66;5060979;28;30345;-68
2022/08/19 08:42:20;;;;;;;;;0.00;0.00;;;;;-147.14;100.00;58812.66;5057170;28;33668;-68
2022/08/19 08:44:50;;;;;;;;;0.20;0.20;;;;;-147.14;100.00;58812.66;5057284;28;8816;-67
2022/08/19 08:47:18;;;;;;;;;0.00;0.00;;;;;-147.14;100.00;58812.66;5040561;28;8809;-67
2022/08/19 08:50:04;;;;;;;;;1.00;1.00;;;;;-147.14;100.00;58812.66;5060191;28;8948;-68
2022/08/19 08:52:36;;;;;;;;;0.60;0.60;;;;;-147.14;100.00;58812.66;5058809;28;9709;-67
2022/08/19 08:55:09;;;;;;;;;0.00;0.00;;;;;-147.14;100.00;58812.66;5056560;28;8721;-68
2022/08/19 08:57:51;;;;;;;;;1.00;0.00;;;;;-147.14;100.00;58812.66;5057408;28;8829;-67
2022/08/19 09:00:33;;;;;;;;;0.80;0.80;;;;;-147.14;100.00;58812.66;5051626;28;8792;-67
2022/08/19 09:03:01;;;;;;;;;0.00;0.00;;;;;-147.14;100.00;58812.66;5059267;28;8824;-68
2022/08/19 09:05:38;;;;;;;;;1.20;1.20;;;;;-147.14;100.00;58812.66;5050366;28;8826;-68
2022/08/19 09:08:40;;;;;;;;;1.00;1.00;;;;;-147.14;100.00;58812.66;5033373;28;8815;-68
2022/08/19 09:11:09;;;;;;;;;0.40;0.40;;;;;-147.14;100.00;58812.66;5010968;28;8748;-68
2022/08/19 09:13:38;;;;;;;;;2.00;2.00;;;;;-147.14;100.00;58812.66;5054137;28;8808;-68
2022/08/19 09:16:04;;;;;;;;;1.00;1.00;;;;;-147.14;100.00;58812.66;5041551;28;8807;-69
2022/08/19 09:18:54;;;;;;;;;0.00;0.00;;;;;-147.14;100.00;58812.66;5051730;28;8918;-67
2022/08/19 09:21:22;;;;;;;;;1.00;1.00;;;;;-147.14;100.00;58812.66;5031364;28;8800;-69
2022/08/19 09:23:48;;;;;;;;;1.00;1.00;;;;;-147.14;100.00;58812.66;5030104;28;9469;-69
2022/08/19 09:26:16;;;;;;;;;0.00;0.00;;;;;-147.14;100.00;58812.66;5035115;28;9310;-69
2022/08/19 09:28:43;;;;;;;;;1.00;1.00;;;;;-147.14;100.00;58812.66;5035481;28;8828;-69
2022/08/19 09:31:23;;;;;;;;;1.00;1.00;;;;;-147.14;100.00;58812.66;5019057;28;8996;-69
2022/08/19 09:33:48;;;;;;;;;2.00;1.00;;;;;-147.14;100.00;58812.66;5038730;28;8807;-67
2022/08/19 09:36:16;;;;;;;;;1.50;1.50;;;;;-147.14;100.00;58812.66;5043651;28;8843;-67
2022/08/19 09:38:41;;;;;;;;;1.00;1.00;;;;;-147.14;100.00;58812.66;5049954;28;8882;-67
2022/08/19 09:41:14;;;;;;;;;2.00;1.00;;;;;-147.14;100.00;58812.66;5043173;28;8831;-67
2022/08/19 09:43:41;;;;;;;;;1.00;1.00;;;;;-147.14;100.00;58812.66;5051444;28;8863;-68
2022/08/19 09:46:08;;;;;;;;;0.20;0.20;;;;;-147.14;100.00;58812.66;5050383;28;8831;-67
2022/08/19 09:48:38;;;;;;;;;1.60;1.00;;;;;-147.14;100.00;58812.66;5052549;28;8840;-67
2022/08/19 09:51:15;;;;;;;;;0.00;0.00;;;;;-147.14;100.00;58812.66;5046812;28;9747;-67
2022/08/19 09:53:42;;;;;;;;;0.00;0.00;;;;;-147.14;100.00;58812.66;5035509;28;8792;-68
2022/08/19 09:56:07;;;;;;;;;1.00;1.00;;;;;-147.14;100.00;58812.66;5052437;28;8824;-68
2022/08/19 09:58:34;;;;;;;;;1.00;1.00;;;;;-147.14;100.00;58812.66;5050625;28;8903;-68
2022/08/19 10:01:01;;;;;;;;;1.00;1.00;;;;;-147.14;100.00;58812.66;5036219;28;8820;-68
2022/08/19 10:03:28;;;;;;;;;2.80;1.00;;;;;-147.14;100.00;58812.66;5053437;28;8827;-68
2022/08/19 10:05:54;;;;;;;;;0.80;0.80;;;;;-147.14;100.00;58812.66;5048156;28;8807;-68
2022/08/19 10:08:23;;;;;;;;;1.00;1.00;;;;;-147.14;100.00;58812.66;5046452;28;8883;-68
2022/08/19 10:10:49;;;;;;;;;0.40;0.40;;;;;-147.14;100.00;58812.66;5048311;28;8832;-62
2022/08/19 10:13:15;;;;;;;;;0.20;0.20;;;;;-147.14;100.00;58812.66;5054864;28;8911;-62
2022/08/19 10:15:42;;;;;;;;;1.00;1.00;;;;;-147.14;100.00;58812.66;5052404;28;8801;-63
2022/08/19 10:18:07;;;;;;;;;0.00;0.00;;;;;-147.14;100.00;58812.66;5049937;28;8832;-63
2022/08/19 10:20:35;;;;;;;;;2.00;2.00;;;;;-147.14;100.00;58812.66;5051156;28;8823;-62
2022/08/19 10:23:00;;;;;;;;;0.80;0.80;;;;;-147.14;100.00;58812.66;5058369;28;8810;-68
2022/08/19 10:25:26;;;;;;;;;0.50;0.50;;;;;-147.14;100.00;58812.66;5057997;28;8838;-69
2022/08/19 10:27:52;;;;;;;;;1.00;1.00;;;;;-147.14;100.00;58812.66;5056808;28;8847;-68
2022/08/19 10:30:18;;;;;;;;;1.00;1.00;;;;;-147.14;100.00;58812.66;5054828;28;11594;-68
2022/08/19 10:32:45;;;;;;;;;0.75;0.75;;;;;-147.14;100.00;58812.66;5058864;28;8809;-69
2022/08/19 10:35:12;;;;;;;;;0.00;0.00;;;;;-147.14;100.00;58812.66;5053946;28;9978;-69
2022/08/19 10:37:38;;;;;;;;;0.00;0.00;;;;;-147.14;100.00;58812.66;5062534;28;8829;-69
2022/08/19 10:40:06;;;;;;;;;0.80;0.80;;;;;-147.14;100.00;58812.66;5058537;28;8805;-69
2022/08/19 10:42:32;;;;;;;;;0.40;0.40;;;;;-147.14;100.00;58812.66;5059322;28;8859;-69
2022/08/19 10:44:57;;;;;;;;;0.00;0.00;;;;;-147.14;100.00;58812.66;5056676;28;8820;-69
2022/08/19 10:47:22;;;;;;;;;3.00;3.00;;;;;-147.14;100.00;58812.66;5056620;28;8832;-69
2022/08/19 10:52:36;;;;;;;;;0.40;0.40;;;;;-147.14;100.00;58812.66;5048805;28;8785;-69
2022/08/19 10:57:49;;;;;;;;;1.00;1.00;;;;;-147.14;100.00;58812.66;5057975;28;8804;-69
2022/08/19 11:00:14;;;;;;;;;1.00;1.00;;;;;-147.14;100.00;58812.66;5060244;28;32545;-68
2022/08/19 11:02:41;;;;;;;;;0.00;0.00;;;;;-147.14;100.00;58812.66;5057828;28;8921;-68
2022/08/19 11:05:09;;;;;;;;;0.00;0.00;;;;;-147.14;100.00;58812.66;5059823;28;8836;-69
2022/08/19 11:07:35;;;;;;;;;0.00;0.00;;;;;-147.14;100.00;58812.66;5049715;28;8864;-69
2022/08/19 11:10:02;;;;;;;;;0.00;0.00;;;;;-147.14;100.00;58812.66;5055585;28;8823;-69
2022/08/19 11:12:28;;;;;;;;;1.00;0.80;;;;;-147.14;100.00;58812.66;5056603;28;8802;-69
2022/08/19 11:14:54;;;;;;;;;0.00;0.00;;;;;-147.14;100.00;58812.66;5059578;28;15318;-69
2022/08/19 11:17:19;;;;;;;;;0.00;0.00;;;;;-147.14;100.00;58812.66;5058697;28;8819;-70
2022/08/19 11:19:48;;;;;;;;;0.00;0.00;;;;;-147.14;100.00;58812.66;5061780;28;8855;-69
2022/08/19 11:22:13;;;;;;;;;0.00;0.00;;;;;-147.14;100.00;58812.66;5025749;28;8775;-69
2022/08/19 11:24:38;;;;;;;;;0.00;0.00;;;;;-147.14;100.00;58812.66;5057843;28;30310;-68
2022/08/19 11:27:07;;;;;;;;;0.00;0.00;;;;;-147.14;100.00;58812.66;5053164;28;9623;-70
2022/08/19 11:29:34;;;;;;;;;0.00;0.00;;;;;-147.14;100.00;58812.66;5061471;28;8837;-69
2022/08/19 11:32:01;;;;;;;;;1.00;1.00;;;;;-147.14;100.00;58812.66;5058115;28;8784;-68
2022/08/19 11:34:28;;;;;;;;;0.40;0.40;;;;;-147.14;100.00;58812.66;5059325;28;8811;-68
2022/08/19 11:36:57;;;;;;;;;0.00;0.00;;;;;-147.14;100.00;58812.66;5049100;28;8905;-70
2022/08/19 11:39:23;;;;;;;;;1.20;0.20;;;;;-147.14;100.00;58812.66;5056085;28;8782;-70
2022/08/19 11:41:49;;;;;;;;;0.00;0.00;;;;;-147.14;100.00;58812.66;5054693;28;8819;-70
2022/08/19 11:44:14;;;;;;;;;0.00;0.00;;;;;-147.14;100.00;58812.66;5058822;28;9036;-70
2022/08/19 11:46:43;;;;;;;;;0.00;0.00;;;;;-147.14;100.00;58812.66;5054840;28;8812;-69
2022/08/19 11:49:09;;;;;;;;;1.00;1.00;;;;;-147.14;100.00;58812.66;5057833;28;8820;-69
2022/08/19 11:51:35;;;;;;;;;0.25;0.25;;;;;-147.14;100.00;58812.66;5045831;28;8876;-72
2022/08/19 11:54:01;;;;;;;;;1.00;0.00;;;;;-147.14;100.00;58812.66;5052840;28;8812;-72
2022/08/19 11:56:27;;;;;;;;;0.00;0.00;;;;;-147.14;100.00;58812.66;5037791;28;11542;-72
2022/08/19 11:58:54;;;;;;;;;0.00;0.00;;;;;-147.14;100.00;58812.66;5045245;28;9782;-72
2022/08/19 12:01:22;;;;;;;;;0.00;0.00;;;;;-147.14;100.00;58812.66;5041254;28;8812;-72
2022/08/19 12:03:49;;;;;;;;;1.00;1.00;;;;;-147.14;100.00;58812.66;5035564;28;8845;-72
2022/08/19 12:06:19;;;;;;;;;0.00;0.00;;;;;-147.14;100.00;58812.66;5055022;28;8850;-69
2022/08/19 12:08:45;;;;;;;;;0.80;0.80;;;;;-147.14;100.00;58812.66;5053634;28;8858;-70
2022/08/19 12:11:12;;;;;;;;;0.00;0.00;;;;;-147.14;100.00;58812.66;5058505;28;8878;-69
2022/08/19 12:13:38;;;;;;;;;0.00;0.00;;;;;-147.14;100.00;58812.66;5055074;28;8812;-70
2022/08/19 12:16:15;;;;;;;;;0.00;0.00;;;;;-147.14;100.00;58812.66;5039613;28;8824;-70
2022/08/19 12:18:45;;;;;;;;;0.00;0.00;;;;;-147.14;100.00;58812.66;5053160;28;8796;-69
2022/08/19 12:21:12;;;;;;;;;2.60;2.60;;;;;-147.14;100.00;58812.66;5055708;28;8800;-69
2022/08/19 12:23:37;;;;;;;;;2.00;2.00;;;;;-147.14;100.00;58812.66;5057110;28;8817;-70
2022/08/19 12:26:03;;;;;;;;;2.50;1.00;;;;;-147.14;100.00;58812.66;5055999;28;9554;-69
2022/08/19 12:28:28;;;;;;;;;0.00;0.00;;;;;-147.14;100.00;58812.66;5056892;28;8816;-69
2022/08/19 12:30:56;;;;;;;;;0.00;0.00;;;;;-147.14;100.00;58812.66;5054339;28;28126;-69
2022/08/19 12:33:24;;;;;;;;;0.60;0.60;;;;;-147.14;100.00;58812.66;5055116;28;8807;-69
2022/08/19 12:35:50;;;;;;;;;1.40;1.40;;;;;-147.14;100.00;58812.66;5053698;28;9407;-69
2022/08/19 12:38:16;;;;;;;;;1.00;1.00;;;;;-147.14;100.00;58812.66;5037294;28;8919;-69
2022/08/19 12:40:41;;;;;;;;;0.00;0.00;;;;;-147.14;100.00;58812.66;5057610;28;8820;-69
2022/08/19 12:43:07;;;;;;;;;0.00;0.00;;;;;-147.14;100.00;58812.66;5055838;28;8832;-69
2022/08/19 12:45:33;;;;;;;;;0.25;0.25;;;;;-147.14;100.00;58812.66;5056016;28;8860;-69
2022/08/19 12:47:58;;;;;;;;;1.50;1.50;;;;;-147.14;100.00;58812.66;5055264;28;8941;-69
2022/08/19 12:50:24;;;;;;;;;1.00;1.00;;;;;-147.14;100.00;58812.66;5055571;28;8836;-69
2022/08/19 12:52:49;;;;;;;;;0.00;0.00;;;;;-147.14;100.00;58812.66;5053100;28;8864;-69
2022/08/19 12:55:15;;;;;;;;;0.75;0.75;;;;;-147.14;100.00;58812.66;5054618;28;9631;-69
2022/08/19 12:57:40;;;;;;;;;1.50;1.50;;;;;-147.14;100.00;58812.66;5053089;28;8856;-68
2022/08/19 13:00:12;;;;;;;;;0.00;0.00;;;;;-147.14;100.00;58812.66;5057183;28;16252;-68
2022/08/19 13:02:38;;;;;;;;;2.00;0.40;;;;;-147.14;100.00;58812.66;5054431;28;8828;-68
2022/08/19 13:05:06;;;;;;;;;0.00;0.00;;;;;-147.14;100.00;58812.66;5055671;28;8822;-68
2022/08/19 13:07:32;;;;;;;;;0.00;0.00;;;;;-147.14;100.00;58812.66;5054938;28;8844;-68
2022/08/19 13:09:57;;;;;;;;;0.00;0.00;;;;;-147.14;100.00;58812.66;5052853;28;9674;-69
2022/08/19 13:12:26;;;;;;;;;0.00;0.00;;;;;-147.14;100.00;58812.66;5054438;28;8820;-69
2022/08/19 13:14:52;;;;;;;;;0.00;0.00;;;;;-147.14;100.00;58812.66;5056550;28;8770;-68
2022/08/19 13:17:17;;;;;;;;;1.40;0.80;;;;;-147.14;100.00;58812.66;5056398;28;8943;-68
2022/08/19 13:19:43;;;;;;;;;0.25;0.25;;;;;-147.14;100.00;58812.66;5054519;28;10097;-69
2022/08/19 13:22:08;;;;;;;;;0.00;0.00;;;;;-147.14;100.00;58812.66;5056677;28;10546;-69
2022/08/19 13:24:33;;;;;;;;;0.00;0.00;;;;;-147.14;100.00;58812.66;5055405;28;35610;-68
2022/08/19 13:27:02;;;;;;;;;0.00;0.00;;;;;-147.14;100.00;58812.66;5051389;28;28685;-68
2022/08/19 13:34:55;;;;;;;;;0.00;0.00;;;;;-147.14;100.00;58812.66;5055955;28;8800;-69
2022/08/19 13:37:40;;;;;;;;;0.75;0.75;;;;;-147.14;100.00;58812.66;5053316;28;32160;-69
2022/08/19 13:40:15;;;;;;;;;0.00;0.00;;;;;-147.14;100.00;58812.66;5053272;28;8966;-69
2022/08/19 13:42:41;;;;;;;;;0.00;0.00;;;;;-147.14;100.00;58812.66;5052544;28;8816;-69
2022/08/19 13:45:07;;;;;;;;;0.00;0.00;;;;;-147.14;100.00;58812.66;5053871;28;8804;-68
2022/08/19 13:47:42;;;;;;;;;0.00;0.00;;;;;-147.14;100.00;58812.66;5052742;28;8882;-68
2022/08/19 13:50:10;;;;;;;;;0.00;0.00;;;;;-147.14;100.00;58812.66;5052324;28;10573;-68
2022/08/19 13:52:36;;;;;;;;;0.00;0.00;;;;;-147.14;100.00;58812.66;5053355;28;8812;-68
2022/08/19 13:55:02;;;;;;;;;0.00;0.00;;;;;-147.14;100.00;58812.66;5052163;28;8921;-68
2022/08/19 13:57:27;;;;;;;;;0.00;0.00;;;;;-147.14;100.00;58812.66;5047222;28;8863;-68
2022/08/19 13:59:52;;;;;;;;;0.00;0.00;;;;;-147.14;100.00;58812.66;5059316;28;8860;-68
2022/08/19 14:02:18;;;;;;;;;0.00;0.00;;;;;-147.14;100.00;58812.66;5054905;28;8832;-70
2022/08/19 14:04:44;;;;;;;;;0.00;0.00;;;;;-147.14;100.00;58812.66;5051809;28;9562;-69
2022/08/19 14:07:10;;;;;;;;;0.00;0.00;;;;;-147.14;100.00;58812.66;5057131;28;8828;-70
2022/08/19 14:09:35;;;;;;;;;0.00;0.00;;;;;-147.14;100.00;58812.66;5062135;28;8835;-69
2022/08/19 14:12:00;;;;;;;;;0.00;0.00;;;;;-147.14;100.00;58812.66;5061505;28;37001;-69
2022/08/19 14:14:26;;;;;;;;;0.00;0.00;;;;;-147.14;100.00;58812.66;5059705;28;8828;-69
2022/08/19 14:16:51;;;;;;;;;0.00;0.00;;;;;-147.14;100.00;58812.66;5055639;28;34000;-69
2022/08/19 14:19:17;;;;;;;;;0.00;0.00;;;;;-147.14;100.00;58812.66;5056395;28;8970;-69
2022/08/19 14:21:42;;;;;;;;;0.00;0.00;;;;;-147.14;100.00;58812.66;5060063;28;15113;-69
2022/08/19 14:24:08;;;;;;;;;0.00;0.00;;;;;-147.14;100.00;58812.66;5052879;28;8917;-69
2022/08/19 14:26:33;;;;;;;;;0.00;0.00;;;;;-147.14;100.00;58812.66;5058270;28;8802;-69
2022/08/19 14:28:59;;;;;;;;;0.00;0.00;;;;;-147.14;100.00;58812.66;5061883;28;15152;-69
2022/08/19 14:31:24;;;;;;;;;0.00;0.00;;;;;-147.14;100.00;58812.66;5059787;28;8930;-69
2022/08/19 14:33:50;;;;;;;;;0.00;0.00;;;;;-147.14;100.00;58812.66;5059197;28;8819;-69
2022/08/19 14:36:16;;;;;;;;;0.00;0.00;;;;;-147.14;100.00;58812.66;5048418;28;8847;-69
2022/08/19 14:38:42;;;;;;;;;1.00;0.00;;;;;-147.14;100.00;58812.66;5052731;28;8836;-69
2022/08/19 14:41:07;;;;;;;;;0.00;0.00;;;;;-147.14;100.00;58812.66;5052788;28;8891;-69
2022/08/19 14:43:33;;;;;;;;;0.00;0.00;;;;;-147.14;100.00;58812.66;5054348;28;8854;-69
2022/08/19 14:45:59;;;;;;;;;0.00;0.00;;;;;-147.14;100.00;58812.66;5055254;28;8904;-69
2022/08/19 14:48:24;;;;;;;;;0.75;0.75;;;;;-147.14;100.00;58812.66;5056721;28;8929;-70
2022/08/19 14:50:49;;;;;;;;;0.00;0.00;;;;;-147.14;100.00;58812.66;5051246;28;29574;-70
2022/08/19 14:53:15;;;;;;;;;0.00;0.00;;;;;-147.14;100.00;58812.66;5049271;28;27505;-70
2022/08/19 14:55:45;;;;;;;;;1.00;0.00;;;;;-147.14;100.00;58812.66;5050745;28;8853;-69
2022/08/19 14:58:11;;;;;;;;;0.00;0.00;;;;;-147.14;100.00;58812.66;5049226;28;8856;-70
2022/08/19 15:00:37;;;;;;;;;0.00;0.00;;;;;-147.14;100.00;58812.66;5050997;28;8804;-69
2022/08/19 15:03:03;;;;;;;;;0.00;0.00;;;;;-147.14;100.00;58812.66;5052126;28;8914;-69
2022/08/19 15:05:28;;;;;;;;;0.00;0.00;;;;;-147.14;100.00;58812.66;5051948;28;8827;-69
2022/08/19 15:07:54;;;;;;;;;0.00;0.00;;;;;-147.14;100.00;58812.66;5054155;28;23846;-70
2022/08/19 15:10:23;;;;;;;;;0.00;0.00;;;;;-147.14;100.00;58812.66;5051307;28;8863;-69
2022/08/19 15:12:48;;;;;;;;;0.00;0.00;;;;;-147.14;100.00;58812.66;5055353;28;8902;-69
2022/08/19 15:15:16;;;;;;;;;0.00;0.00;;;;;-147.14;100.00;58812.66;5055402;28;10406;-69
2022/08/19 15:17:42;;;;;;;;;0.00;0.00;;;;;-147.14;100.00;58812.66;5060293;28;8817;-69
2022/08/19 15:20:09;;;;;;;;;0.00;0.00;;;;;-147.14;100.00;58812.66;5064235;28;8824;-70
2022/08/19 15:22:35;;;;;;;;;0.00;0.00;;;;;-147.14;100.00;58812.66;5059371;28;8794;-69
2022/08/19 15:25:00;;;;;;;;;1.40;0.80;;;;;-147.14;100.00;58812.66;5049897;28;8820;-70
2022/08/19 15:27:26;;;;;;;;;0.00;0.00;;;;;-147.14;100.00;58812.66;5042337;28;8854;-69
2022/08/19 15:29:51;;;;;;;;;0.00;0.00;;;;;-147.14;100.00;58812.66;5053704;28;8848;-69
2022/08/19 15:32:16;;;;;;;;;0.50;0.25;;;;;-147.14;100.00;58812.66;5062042;28;34794;-69
2022/08/19 15:34:42;;;;;;;;;0.50;0.00;;;;;-147.14;100.00;58812.66;5059026;28;9617;-69
2022/08/19 15:37:07;;;;;;;;;3.25;1.00;;;;;-147.14;100.00;58812.66;5055966;28;9627;-69
2022/08/19 15:39:34;;;;;;;;;1.00;1.00;;;;;-147.14;100.00;58812.66;5054264;28;29214;-69
2022/08/19 15:42:00;;;;;;;;;1.00;1.00;;;;;-147.14;100.00;58812.66;5059981;28;12490;-69
2022/08/19 15:44:26;;;;;;;;;0.00;0.00;;;;;-147.14;100.00;58812.66;5050587;28;8792;-69
2022/08/19 15:46:51;;;;;;;;;0.80;0.80;;;;;-147.14;100.00;58812.66;5056668;28;8829;-69
2022/08/19 15:49:18;;;;;;;;;0.00;0.00;;;;;-147.14;100.00;58812.66;5052209;28;8852;-70
2022/08/19 15:51:45;;;;;;;;;0.00;0.00;;;;;-147.14;100.00;58812.66;5057137;28;8828;-69
2022/08/19 15:54:13;;;;;;;;;0.00;0.00;;;;;-147.14;100.00;58812.66;5059294;28;8845;-69
2022/08/19 16:07:36;;;;;;;;;2.00;1.00;;;;;-147.14;100.00;58812.66;5054384;28;8803;-69
2022/08/19 16:10:02;;;;;;;;;1.75;0.00;;;;;-147.14;100.00;58812.66;5059657;28;8949;-70
2022/08/19 16:12:29;;;;;;;;;1.80;1.00;;;;;-147.14;100.00;58812.66;5054868;28;8804;-69
2022/08/19 16:14:55;;;;;;;;;0.00;0.00;;;;;-147.14;100.00;58812.66;5055593;28;8827;-69
2022/08/19 16:17:21;;;;;;;;;0.00;0.00;;;;;-147.14;100.00;58812.66;5055050;28;8914;-69
2022/08/19 16:19:46;;;;;;;;;0.00;0.00;;;;;-147.14;100.00;58812.66;5056629;28;8922;-69
2022/08/19 16:22:11;;;;;;;;;0.00;0.00;;;;;-147.14;100.00;58812.66;5062163;28;8812;-69
2022/08/19 16:24:37;;;;;;;;;0.00;0.00;;;;;-147.14;100.00;58812.66;5057490;28;30357;-69
2022/08/19 16:27:02;;;;;;;;;0.00;0.00;;;;;-147.14;100.00;58812.66;5055024;28;35154;-69
2022/08/19 16:29:28;;;;;;;;;0.00;0.00;;;;;-147.14;100.00;58812.66;5049359;28;8848;-69